sensor_id;sensor_type;location;lat;lon;timestamp;P1;durP1;ratioP1;P2;durP2;ratioP2
69953;SDS011;57276;51.364;12.376;2023-02-05T00:00:26;5.50;;;1.70;;
69953;SDS011;57276;51.364;12.376;2023-02-05T00:06:28;6.10;;;1.70;;
69953;SDS011;57276;51.364;12.376;2023-02-05T00:12:29;5.78;;;1.73;;
69953;SDS011;57276;51.364;12.376;2023-02-05T00:18:31;5.40;;;1.73;;
69953;SDS011;57276;51.364;12.376;2023-02-05T00:24:32;5.57;;;1.70;;
69953;SDS011;57276;51.364;12.376;2023-02-05T00:30:34;3.93;;;1.53;;
69953;SDS011;57276;51.364;12.376;2023-02-05T00:36:35;3.42;;;1.35;;
69953;SDS011;57276;51.364;12.376;2023-02-05T00:42:37;6.18;;;1.60;;
69953;SDS011;57276;51.364;12.376;2023-02-05T00:48:39;4.07;;;1.50;;
69953;SDS011;57276;51.364;12.376;2023-02-05T00:54:42;3.92;;;1.15;;
69953;SDS011;57276;51.364;12.376;2023-02-05T01:00:43;3.87;;;1.37;;
69953;SDS011;57276;51.364;12.376;2023-02-05T01:06:45;3.92;;;1.10;;
69953;SDS011;57276;51.364;12.376;2023-02-05T01:12:47;5.60;;;1.65;;
69953;SDS011;57276;51.364;12.376;2023-02-05T01:18:49;3.93;;;1.60;;
69953;SDS011;57276;51.364;12.376;2023-02-05T01:24:50;4.80;;;1.20;;
69953;SDS011;57276;51.364;12.376;2023-02-05T01:30:52;4.67;;;1.20;;
69953;SDS011;57276;51.364;12.376;2023-02-05T01:36:53;10.88;;;1.40;;
69953;SDS011;57276;51.364;12.376;2023-02-05T01:42:55;4.70;;;1.30;;
69953;SDS011;57276;51.364;12.376;2023-02-05T01:48:57;4.40;;;1.33;;
69953;SDS011;57276;51.364;12.376;2023-02-05T01:54:59;5.10;;;1.38;;
69953;SDS011;57276;51.364;12.376;2023-02-05T02:01:02;3.57;;;1.60;;
69953;SDS011;57276;51.364;12.376;2023-02-05T02:07:05;5.75;;;1.17;;
69953;SDS011;57276;51.364;12.376;2023-02-05T02:13:10;5.72;;;1.27;;
69953;SDS011;57276;51.364;12.376;2023-02-05T02:19:16;5.07;;;1.13;;
69953;SDS011;57276;51.364;12.376;2023-02-05T02:25:44;3.50;;;0.88;;
69953;SDS011;57276;51.364;12.376;2023-02-05T02:31:56;5.67;;;0.83;;
69953;SDS011;57276;51.364;12.376;2023-02-05T02:38:17;4.78;;;1.10;;
69953;SDS011;57276;51.364;12.376;2023-02-05T02:50:26;3.40;;;1.07;;
69953;SDS011;57276;51.364;12.376;2023-02-05T02:56:33;4.10;;;1.58;;
69953;SDS011;57276;51.364;12.376;2023-02-05T03:02:37;6.30;;;1.30;;
69953;SDS011;57276;51.364;12.376;2023-02-05T03:08:49;6.20;;;1.45;;
69953;SDS011;57276;51.364;12.376;2023-02-05T03:14:53;6.05;;;1.10;;
69953;SDS011;57276;51.364;12.376;2023-02-05T03:20:57;4.60;;;1.50;;
69953;SDS011;57276;51.364;12.376;2023-02-05T03:27:00;4.10;;;1.40;;
69953;SDS011;57276;51.364;12.376;2023-02-05T03:45:44;5.03;;;1.50;;
69953;SDS011;57276;51.364;12.376;2023-02-05T03:58:05;5.10;;;1.95;;
69953;SDS011;57276;51.364;12.376;2023-02-05T04:04:09;3.87;;;1.40;;
69953;SDS011;57276;51.364;12.376;2023-02-05T04:10:11;4.30;;;1.30;;
69953;SDS011;57276;51.364;12.376;2023-02-05T04:16:14;4.95;;;1.10;;
69953;SDS011;57276;51.364;12.376;2023-02-05T04:22:16;3.33;;;1.13;;
69953;SDS011;57276;51.364;12.376;2023-02-05T04:28:20;4.35;;;1.30;;
69953;SDS011;57276;51.364;12.376;2023-02-05T04:34:22;3.97;;;1.50;;
69953;SDS011;57276;51.364;12.376;2023-02-05T04:40:24;4.25;;;1.30;;
69953;SDS011;57276;51.364;12.376;2023-02-05T04:46:25;4.07;;;1.38;;
69953;SDS011;57276;51.364;12.376;2023-02-05T04:52:27;4.73;;;1.50;;
69953;SDS011;57276;51.364;12.376;2023-02-05T04:58:28;3.95;;;1.42;;
69953;SDS011;57276;51.364;12.376;2023-02-05T05:04:30;5.03;;;1.30;;
69953;SDS011;57276;51.364;12.376;2023-02-05T05:10:31;6.18;;;1.52;;
69953;SDS011;57276;51.364;12.376;2023-02-05T05:16:33;5.20;;;1.33;;
69953;SDS011;57276;51.364;12.376;2023-02-05T05:22:34;5.63;;;1.50;;
69953;SDS011;57276;51.364;12.376;2023-02-05T05:28:36;3.92;;;1.30;;
69953;SDS011;57276;51.364;12.376;2023-02-05T05:34:37;3.97;;;1.40;;
69953;SDS011;57276;51.364;12.376;2023-02-05T05:40:39;5.13;;;1.13;;
69953;SDS011;57276;51.364;12.376;2023-02-05T05:46:59;4.07;;;1.60;;
69953;SDS011;57276;51.364;12.376;2023-02-05T05:53:00;5.87;;;2.00;;
69953;SDS011;57276;51.364;12.376;2023-02-05T05:59:02;4.97;;;1.63;;
69953;SDS011;57276;51.364;12.376;2023-02-05T06:05:04;4.80;;;1.80;;
69953;SDS011;57276;51.364;12.376;2023-02-05T06:11:05;6.50;;;2.00;;
69953;SDS011;57276;51.364;12.376;2023-02-05T06:17:07;7.10;;;1.83;;
69953;SDS011;57276;51.364;12.376;2023-02-05T06:23:08;5.53;;;1.47;;
69953;SDS011;57276;51.364;12.376;2023-02-05T06:29:10;6.13;;;1.55;;
69953;SDS011;57276;51.364;12.376;2023-02-05T06:35:11;4.43;;;1.63;;
69953;SDS011;57276;51.364;12.376;2023-02-05T06:41:13;5.97;;;1.70;;
69953;SDS011;57276;51.364;12.376;2023-02-05T06:47:14;4.57;;;1.42;;
69953;SDS011;57276;51.364;12.376;2023-02-05T06:53:16;6.93;;;1.80;;
69953;SDS011;57276;51.364;12.376;2023-02-05T06:59:17;4.25;;;1.90;;
69953;SDS011;57276;51.364;12.376;2023-02-05T07:05:19;5.17;;;1.93;;
69953;SDS011;57276;51.364;12.376;2023-02-05T07:11:21;4.13;;;1.30;;
69953;SDS011;57276;51.364;12.376;2023-02-05T07:17:23;4.63;;;1.67;;
69953;SDS011;57276;51.364;12.376;2023-02-05T07:23:24;4.53;;;1.37;;
69953;SDS011;57276;51.364;12.376;2023-02-05T07:29:26;7.43;;;2.00;;
69953;SDS011;57276;51.364;12.376;2023-02-05T07:35:31;3.70;;;1.83;;
69953;SDS011;57276;51.364;12.376;2023-02-05T07:41:33;6.85;;;2.00;;
69953;SDS011;57276;51.364;12.376;2023-02-05T07:47:34;4.82;;;1.77;;
69953;SDS011;57276;51.364;12.376;2023-02-05T07:53:36;4.87;;;2.03;;
69953;SDS011;57276;51.364;12.376;2023-02-05T07:59:37;6.65;;;2.10;;
69953;SDS011;57276;51.364;12.376;2023-02-05T08:05:39;8.53;;;2.30;;
69953;SDS011;57276;51.364;12.376;2023-02-05T08:11:40;6.45;;;2.60;;
69953;SDS011;57276;51.364;12.376;2023-02-05T08:17:42;5.68;;;2.30;;
69953;SDS011;57276;51.364;12.376;2023-02-05T08:23:43;10.27;;;2.70;;
69953;SDS011;57276;51.364;12.376;2023-02-05T08:29:46;6.22;;;2.53;;
69953;SDS011;57276;51.364;12.376;2023-02-05T08:35:47;7.33;;;2.40;;
69953;SDS011;57276;51.364;12.376;2023-02-05T08:41:49;8.80;;;3.00;;
69953;SDS011;57276;51.364;12.376;2023-02-05T08:47:50;7.03;;;3.30;;
69953;SDS011;57276;51.364;12.376;2023-02-05T08:53:52;8.20;;;3.70;;
69953;SDS011;57276;51.364;12.376;2023-02-05T08:59:54;8.30;;;3.97;;
69953;SDS011;57276;51.364;12.376;2023-02-05T09:05:56;10.30;;;4.27;;
69953;SDS011;57276;51.364;12.376;2023-02-05T09:11:58;8.98;;;4.22;;
69953;SDS011;57276;51.364;12.376;2023-02-05T09:18:00;7.43;;;3.58;;
69953;SDS011;57276;51.364;12.376;2023-02-05T09:24:01;9.63;;;4.43;;
69953;SDS011;57276;51.364;12.376;2023-02-05T09:30:03;10.95;;;4.43;;
69953;SDS011;57276;51.364;12.376;2023-02-05T09:36:08;11.80;;;4.97;;
69953;SDS011;57276;51.364;12.376;2023-02-05T09:42:18;10.75;;;4.70;;
69953;SDS011;57276;51.364;12.376;2023-02-05T09:48:33;10.40;;;5.13;;
69953;SDS011;57276;51.364;12.376;2023-02-05T09:54:41;11.47;;;5.40;;
69953;SDS011;57276;51.364;12.376;2023-02-05T10:13:31;9.35;;;4.63;;
69953;SDS011;57276;51.364;12.376;2023-02-05T10:19:41;12.07;;;5.00;;
69953;SDS011;57276;51.364;12.376;2023-02-05T10:26:33;9.93;;;4.83;;
69953;SDS011;57276;51.364;12.376;2023-02-05T10:32:21;12.55;;;5.80;;
69953;SDS011;57276;51.364;12.376;2023-02-05T10:38:25;13.50;;;7.10;;
69953;SDS011;57276;51.364;12.376;2023-02-05T10:44:31;11.25;;;5.25;;
69953;SDS011;57276;51.364;12.376;2023-02-05T10:50:45;10.27;;;5.53;;
69953;SDS011;57276;51.364;12.376;2023-02-05T10:56:48;10.57;;;5.30;;
69953;SDS011;57276;51.364;12.376;2023-02-05T11:02:50;9.73;;;4.80;;
69953;SDS011;57276;51.364;12.376;2023-02-05T11:08:53;8.70;;;4.83;;
69953;SDS011;57276;51.364;12.376;2023-02-05T11:14:55;9.75;;;4.75;;
69953;SDS011;57276;51.364;12.376;2023-02-05T11:20:59;7.97;;;4.32;;
69953;SDS011;57276;51.364;12.376;2023-02-05T11:45:24;8.32;;;3.47;;
69953;SDS011;57276;51.364;12.376;2023-02-05T11:51:38;6.55;;;3.17;;
69953;SDS011;57276;51.364;12.376;2023-02-05T11:57:41;6.53;;;3.40;;
69953;SDS011;57276;51.364;12.376;2023-02-05T12:03:45;8.00;;;3.75;;
69953;SDS011;57276;51.364;12.376;2023-02-05T12:09:57;8.50;;;3.50;;
69953;SDS011;57276;51.364;12.376;2023-02-05T12:16:03;6.32;;;3.10;;
69953;SDS011;57276;51.364;12.376;2023-02-05T12:22:15;6.45;;;2.90;;
69953;SDS011;57276;51.364;12.376;2023-02-05T12:28:25;6.87;;;3.20;;
69953;SDS011;57276;51.364;12.376;2023-02-05T12:34:40;7.50;;;3.30;;
69953;SDS011;57276;51.364;12.376;2023-02-05T12:40:59;6.70;;;2.80;;
69953;SDS011;57276;51.364;12.376;2023-02-05T12:53:38;5.78;;;2.40;;
69953;SDS011;57276;51.364;12.376;2023-02-05T12:59:47;5.47;;;2.83;;
69953;SDS011;57276;51.364;12.376;2023-02-05T13:05:52;7.10;;;2.50;;
69953;SDS011;57276;51.364;12.376;2023-02-05T13:11:56;6.03;;;2.40;;
69953;SDS011;57276;51.364;12.376;2023-02-05T13:18:00;5.43;;;2.38;;
69953;SDS011;57276;51.364;12.376;2023-02-05T13:24:24;7.07;;;3.05;;
69953;SDS011;57276;51.364;12.376;2023-02-05T13:30:45;8.07;;;2.90;;
69953;SDS011;57276;51.364;12.376;2023-02-05T13:43:18;6.20;;;2.87;;
69953;SDS011;57276;51.364;12.376;2023-02-05T13:55:52;5.90;;;2.78;;
69953;SDS011;57276;51.364;12.376;2023-02-05T14:01:57;5.73;;;2.80;;
69953;SDS011;57276;51.364;12.376;2023-02-05T14:08:01;7.32;;;2.65;;
69953;SDS011;57276;51.364;12.376;2023-02-05T14:14:25;6.37;;;2.67;;
69953;SDS011;57276;51.364;12.376;2023-02-05T14:26:42;7.80;;;2.90;;
69953;SDS011;57276;51.364;12.376;2023-02-05T14:38:52;7.35;;;3.40;;
69953;SDS011;57276;51.364;12.376;2023-02-05T14:44:54;5.93;;;2.80;;
69953;SDS011;57276;51.364;12.376;2023-02-05T14:51:01;8.52;;;3.55;;
69953;SDS011;57276;51.364;12.376;2023-02-05T14:57:11;8.25;;;2.90;;
69953;SDS011;57276;51.364;12.376;2023-02-05T15:03:22;25.13;;;7.03;;
69953;SDS011;57276;51.364;12.376;2023-02-05T15:09:31;6.80;;;3.15;;
69953;SDS011;57276;51.364;12.376;2023-02-05T15:15:34;5.27;;;2.60;;
69953;SDS011;57276;51.364;12.376;2023-02-05T15:21:38;7.10;;;3.30;;
69953;SDS011;57276;51.364;12.376;2023-02-05T15:27:41;8.35;;;2.95;;
69953;SDS011;57276;51.364;12.376;2023-02-05T15:33:51;6.67;;;2.67;;
69953;SDS011;57276;51.364;12.376;2023-02-05T15:46:18;7.07;;;3.00;;
69953;SDS011;57276;51.364;12.376;2023-02-05T15:52:21;10.98;;;3.75;;
69953;SDS011;57276;51.364;12.376;2023-02-05T15:58:23;9.65;;;3.63;;
69953;SDS011;57276;51.364;12.376;2023-02-05T16:04:27;8.10;;;3.40;;
69953;SDS011;57276;51.364;12.376;2023-02-05T16:10:32;7.90;;;3.58;;
69953;SDS011;57276;51.364;12.376;2023-02-05T16:16:35;7.40;;;3.37;;
69953;SDS011;57276;51.364;12.376;2023-02-05T16:22:40;7.03;;;3.55;;
69953;SDS011;57276;51.364;12.376;2023-02-05T16:28:50;11.18;;;4.10;;
69953;SDS011;57276;51.364;12.376;2023-02-05T16:34:52;8.73;;;4.27;;
69953;SDS011;57276;51.364;12.376;2023-02-05T16:40:54;9.77;;;5.00;;
69953;SDS011;57276;51.364;12.376;2023-02-05T16:47:04;9.80;;;4.43;;
69953;SDS011;57276;51.364;12.376;2023-02-05T16:53:12;8.57;;;4.13;;
69953;SDS011;57276;51.364;12.376;2023-02-05T16:59:18;11.10;;;4.75;;
69953;SDS011;57276;51.364;12.376;2023-02-05T17:05:30;9.93;;;4.97;;
69953;SDS011;57276;51.364;12.376;2023-02-05T17:11:35;10.20;;;5.43;;
69953;SDS011;57276;51.364;12.376;2023-02-05T17:17:47;10.20;;;4.83;;
69953;SDS011;57276;51.364;12.376;2023-02-05T17:23:50;11.23;;;4.72;;
69953;SDS011;57276;51.364;12.376;2023-02-05T17:29:52;12.30;;;5.30;;
69953;SDS011;57276;51.364;12.376;2023-02-05T17:35:53;9.47;;;5.10;;
69953;SDS011;57276;51.364;12.376;2023-02-05T17:41:55;9.95;;;4.97;;
69953;SDS011;57276;51.364;12.376;2023-02-05T17:48:09;8.93;;;4.40;;
69953;SDS011;57276;51.364;12.376;2023-02-05T17:54:12;9.30;;;4.57;;
69953;SDS011;57276;51.364;12.376;2023-02-05T18:00:16;10.50;;;4.40;;
69953;SDS011;57276;51.364;12.376;2023-02-05T18:06:20;9.03;;;3.97;;
69953;SDS011;57276;51.364;12.376;2023-02-05T18:12:22;8.80;;;3.70;;
69953;SDS011;57276;51.364;12.376;2023-02-05T18:18:23;8.50;;;3.60;;
69953;SDS011;57276;51.364;12.376;2023-02-05T18:24:25;6.90;;;3.30;;
69953;SDS011;57276;51.364;12.376;2023-02-05T18:30:27;8.75;;;3.50;;
69953;SDS011;57276;51.364;12.376;2023-02-05T18:36:30;7.73;;;3.37;;
69953;SDS011;57276;51.364;12.376;2023-02-05T18:42:31;11.02;;;3.58;;
69953;SDS011;57276;51.364;12.376;2023-02-05T18:48:33;8.90;;;4.13;;
69953;SDS011;57276;51.364;12.376;2023-02-05T18:54:34;10.23;;;4.28;;
69953;SDS011;57276;51.364;12.376;2023-02-05T19:00:36;10.73;;;4.72;;
69953;SDS011;57276;51.364;12.376;2023-02-05T19:06:44;9.43;;;3.93;;
69953;SDS011;57276;51.364;12.376;2023-02-05T19:12:49;11.27;;;5.00;;
69953;SDS011;57276;51.364;12.376;2023-02-05T19:18:51;12.23;;;5.00;;
69953;SDS011;57276;51.364;12.376;2023-02-05T19:24:52;16.60;;;7.32;;
69953;SDS011;57276;51.364;12.376;2023-02-05T19:30:54;22.88;;;7.80;;
69953;SDS011;57276;51.364;12.376;2023-02-05T19:36:56;20.57;;;8.73;;
69953;SDS011;57276;51.364;12.376;2023-02-05T19:42:57;16.80;;;7.65;;
69953;SDS011;57276;51.364;12.376;2023-02-05T19:49:00;14.67;;;6.50;;
69953;SDS011;57276;51.364;12.376;2023-02-05T19:55:02;15.55;;;6.90;;
69953;SDS011;57276;51.364;12.376;2023-02-05T20:01:17;16.05;;;6.82;;
69953;SDS011;57276;51.364;12.376;2023-02-05T20:07:19;11.67;;;6.13;;
69953;SDS011;57276;51.364;12.376;2023-02-05T20:13:24;13.25;;;6.20;;
69953;SDS011;57276;51.364;12.376;2023-02-05T20:19:25;12.63;;;6.10;;
69953;SDS011;57276;51.364;12.376;2023-02-05T20:25:27;15.30;;;6.22;;
69953;SDS011;57276;51.364;12.376;2023-02-05T20:31:30;12.43;;;6.10;;
69953;SDS011;57276;51.364;12.376;2023-02-05T20:37:35;14.60;;;6.57;;
69953;SDS011;57276;51.364;12.376;2023-02-05T20:43:37;13.88;;;6.30;;
69953;SDS011;57276;51.364;12.376;2023-02-05T20:49:39;14.70;;;6.17;;
69953;SDS011;57276;51.364;12.376;2023-02-05T20:55:44;13.38;;;6.40;;
69953;SDS011;57276;51.364;12.376;2023-02-05T21:01:46;14.48;;;6.28;;
69953;SDS011;57276;51.364;12.376;2023-02-05T21:07:48;12.83;;;5.40;;
69953;SDS011;57276;51.364;12.376;2023-02-05T21:13:51;11.70;;;5.63;;
69953;SDS011;57276;51.364;12.376;2023-02-05T21:19:53;12.23;;;5.07;;
69953;SDS011;57276;51.364;12.376;2023-02-05T21:25:58;14.30;;;5.53;;
69953;SDS011;57276;51.364;12.376;2023-02-05T21:32:00;12.65;;;5.88;;
69953;SDS011;57276;51.364;12.376;2023-02-05T21:38:01;16.50;;;6.67;;
69953;SDS011;57276;51.364;12.376;2023-02-05T21:44:03;12.45;;;5.82;;
69953;SDS011;57276;51.364;12.376;2023-02-05T21:50:05;13.77;;;5.20;;
69953;SDS011;57276;51.364;12.376;2023-02-05T21:56:08;15.45;;;5.05;;
69953;SDS011;57276;51.364;12.376;2023-02-05T22:02:09;11.25;;;6.18;;
69953;SDS011;57276;51.364;12.376;2023-02-05T22:08:11;15.70;;;6.40;;
69953;SDS011;57276;51.364;12.376;2023-02-05T22:14:13;11.18;;;5.35;;
69953;SDS011;57276;51.364;12.376;2023-02-05T22:20:15;12.30;;;5.00;;
69953;SDS011;57276;51.364;12.376;2023-02-05T22:26:17;13.05;;;5.78;;
69953;SDS011;57276;51.364;12.376;2023-02-05T22:32:19;14.30;;;5.35;;
69953;SDS011;57276;51.364;12.376;2023-02-05T22:38:20;13.27;;;6.00;;
69953;SDS011;57276;51.364;12.376;2023-02-05T22:44:21;12.85;;;6.25;;
69953;SDS011;57276;51.364;12.376;2023-02-05T22:50:23;11.13;;;5.43;;
69953;SDS011;57276;51.364;12.376;2023-02-05T22:56:25;13.70;;;5.30;;
69953;SDS011;57276;51.364;12.376;2023-02-05T23:02:26;13.68;;;5.95;;
69953;SDS011;57276;51.364;12.376;2023-02-05T23:08:28;11.17;;;4.63;;
69953;SDS011;57276;51.364;12.376;2023-02-05T23:14:29;10.27;;;4.43;;
69953;SDS011;57276;51.364;12.376;2023-02-05T23:20:31;11.10;;;4.80;;
69953;SDS011;57276;51.364;12.376;2023-02-05T23:26:33;8.40;;;4.38;;
69953;SDS011;57276;51.364;12.376;2023-02-05T23:32:37;10.40;;;4.90;;
69953;SDS011;57276;51.364;12.376;2023-02-05T23:38:39;10.13;;;4.90;;
69953;SDS011;57276;51.364;12.376;2023-02-05T23:44:40;12.98;;;5.75;;
69953;SDS011;57276;51.364;12.376;2023-02-05T23:50:42;11.97;;;5.90;;
69953;SDS011;57276;51.364;12.376;2023-02-05T23:56:44;9.73;;;4.93;;
